createdAt,value
2022-10-05T00:02:23.143Z,20.75
2022-10-05T00:04:53.608Z,20.74
2022-10-05T00:07:21.548Z,20.75
2022-10-05T00:09:56.267Z,20.74
2022-10-05T00:12:24.392Z,20.75
2022-10-05T00:14:53.482Z,20.74
2022-10-05T00:17:22.238Z,20.74
2022-10-05T00:19:53.761Z,20.74
2022-10-05T00:22:23.060Z,20.74
2022-10-05T00:24:54.918Z,20.72
2022-10-05T00:27:41.867Z,20.72
2022-10-05T00:30:17.644Z,20.71
2022-10-05T00:32:44.903Z,20.71
2022-10-05T00:35:13.668Z,20.71
2022-10-05T00:37:40.635Z,20.72
2022-10-05T00:40:45.183Z,20.72
2022-10-05T00:43:40.841Z,20.72
2022-10-05T00:46:28.653Z,20.71
2022-10-05T00:48:54.890Z,20.71
2022-10-05T00:51:31.413Z,20.70
2022-10-05T00:54:03.775Z,20.71
2022-10-05T00:56:39.149Z,20.71
2022-10-05T00:59:14.488Z,20.70
2022-10-05T01:01:48.733Z,20.70
2022-10-05T01:04:18.073Z,20.70
2022-10-05T01:06:55.021Z,20.69
2022-10-05T01:09:35.414Z,20.70
2022-10-05T01:12:22.399Z,20.69
2022-10-05T01:15:14.314Z,20.69
2022-10-05T01:17:51.231Z,20.69
2022-10-05T01:20:51.536Z,20.68
2022-10-05T01:23:31.189Z,20.69
2022-10-05T01:26:35.174Z,20.68
2022-10-05T01:29:04.352Z,20.68
2022-10-05T01:31:56.529Z,20.67
2022-10-05T01:35:02.757Z,20.67
2022-10-05T01:37:56.236Z,20.66
2022-10-05T01:40:43.787Z,20.66
2022-10-05T01:43:17.158Z,20.67
2022-10-05T01:45:55.658Z,20.67
2022-10-05T01:48:51.196Z,20.65
2022-10-05T01:51:23.292Z,20.66
2022-10-05T01:54:20.320Z,20.65
2022-10-05T01:56:55.255Z,20.66
2022-10-05T01:59:34.247Z,20.65
2022-10-05T02:02:02.900Z,20.65
2022-10-05T02:05:00.798Z,20.64
2022-10-05T02:07:29.376Z,20.64
2022-10-05T02:10:02.199Z,20.64
2022-10-05T02:12:34.764Z,20.65
2022-10-05T02:15:12.816Z,20.63
2022-10-05T02:17:45.648Z,20.64
2022-10-05T02:20:19.913Z,20.63
2022-10-05T02:22:52.827Z,20.63
2022-10-05T02:25:31.005Z,20.64
2022-10-05T02:28:06.980Z,20.63
2022-10-05T02:30:41.327Z,20.64
2022-10-05T02:33:18.966Z,20.63
2022-10-05T02:35:45.431Z,20.63
2022-10-05T02:38:23.411Z,20.61
2022-10-05T02:41:02.110Z,20.62
2022-10-05T02:43:38.743Z,20.62
2022-10-05T02:46:28.407Z,20.61
2022-10-05T02:48:54.648Z,20.62
2022-10-05T02:51:27.923Z,20.61
2022-10-05T02:54:10.766Z,20.61
2022-10-05T02:56:48.117Z,20.61
2022-10-05T02:59:24.135Z,20.60
2022-10-05T03:01:55.617Z,20.61
2022-10-05T03:04:36.720Z,20.59
2022-10-05T03:07:16.025Z,20.59
2022-10-05T03:09:51.974Z,20.60
2022-10-05T03:12:39.085Z,20.59
2022-10-05T03:15:24.190Z,20.57
2022-10-05T03:17:59.805Z,20.58
2022-10-05T03:20:49.730Z,20.57
2022-10-05T03:23:38.711Z,20.57
2022-10-05T03:26:29.101Z,20.57
2022-10-05T03:29:19.680Z,20.57
2022-10-05T03:32:00.381Z,20.57
2022-10-05T03:34:41.144Z,20.57
2022-10-05T03:37:27.952Z,20.57
2022-10-05T03:40:14.965Z,20.56
2022-10-05T03:42:56.261Z,20.56
2022-10-05T03:45:37.387Z,20.56
2022-10-05T03:48:23.427Z,20.57
2022-10-05T03:51:31.007Z,20.56
2022-10-05T03:54:15.306Z,20.55
2022-10-05T03:56:51.451Z,20.55
2022-10-05T03:59:32.123Z,20.55
2022-10-05T04:02:02.132Z,20.55
2022-10-05T04:04:37.275Z,20.54
2022-10-05T04:07:06.155Z,20.54
2022-10-05T04:09:35.263Z,20.54
2022-10-05T04:12:07.320Z,20.53
2022-10-05T04:14:41.505Z,20.52
2022-10-05T04:17:21.088Z,20.53
2022-10-05T04:19:56.972Z,20.52
2022-10-05T04:22:35.099Z,20.53
2022-10-05T04:25:20.433Z,20.54
2022-10-05T04:27:55.064Z,20.52
2022-10-05T04:30:24.924Z,20.52
2022-10-05T04:32:57.254Z,20.52
2022-10-05T04:35:45.362Z,20.51
2022-10-05T04:38:44.788Z,20.51
2022-10-05T04:41:48.292Z,20.50
2022-10-05T04:44:46.479Z,20.52
2022-10-05T04:47:41.949Z,20.50
2022-10-05T04:50:17.097Z,20.50
2022-10-05T04:52:46.464Z,20.51
2022-10-05T04:55:32.780Z,20.50
2022-10-05T04:58:44.322Z,20.50
2022-10-05T05:01:44.561Z,20.49
2022-10-05T05:04:29.749Z,20.50
2022-10-05T05:07:03.531Z,20.49
2022-10-05T05:09:59.477Z,20.48
2022-10-05T05:12:55.884Z,20.49
2022-10-05T05:15:35.208Z,20.49
2022-10-05T05:18:23.513Z,20.49
2022-10-05T05:21:02.085Z,20.48
2022-10-05T05:23:39.251Z,20.47
2022-10-05T05:26:45.574Z,20.48
2022-10-05T05:29:21.618Z,20.48
2022-10-05T05:31:53.284Z,20.48
2022-10-05T05:34:44.222Z,20.47
2022-10-05T05:37:25.737Z,20.47
2022-10-05T05:39:58.467Z,20.46
2022-10-05T05:42:49.734Z,20.47
2022-10-05T05:45:23.682Z,20.47
2022-10-05T05:47:54.721Z,20.46
2022-10-05T05:50:42.335Z,20.47
2022-10-05T05:53:19.157Z,20.46
2022-10-05T05:55:49.892Z,20.46
2022-10-05T05:58:25.103Z,20.45
2022-10-05T06:01:13.182Z,20.46
2022-10-05T06:03:57.802Z,20.47
2022-10-05T06:06:31.991Z,20.46
2022-10-05T06:09:03.148Z,20.48
2022-10-05T06:11:42.740Z,20.48
2022-10-05T06:14:21.662Z,20.46
2022-10-05T06:16:55.252Z,20.48
2022-10-05T06:19:24.199Z,20.47
2022-10-05T06:22:01.445Z,20.47
2022-10-05T06:24:55.119Z,20.48
2022-10-05T06:27:25.774Z,20.48
2022-10-05T06:30:05.575Z,20.48
2022-10-05T06:32:50.094Z,20.48
2022-10-05T06:35:41.245Z,20.48
2022-10-05T06:38:34.961Z,20.49
2022-10-05T06:41:15.355Z,20.49
2022-10-05T06:44:00.602Z,20.48
2022-10-05T06:46:59.990Z,20.48
2022-10-05T06:49:34.011Z,20.48
2022-10-05T06:52:26.434Z,20.48
2022-10-05T06:55:27.973Z,20.48
2022-10-05T06:58:06.219Z,20.48
2022-10-05T07:00:52.733Z,20.47
2022-10-05T07:03:41.888Z,20.49
2022-10-05T07:06:20.903Z,20.49
2022-10-05T07:09:21.462Z,20.48
2022-10-05T07:12:04.927Z,20.47
2022-10-05T07:14:39.212Z,20.49
2022-10-05T07:17:24.177Z,20.48
2022-10-05T07:20:00.904Z,20.49
2022-10-05T07:22:44.863Z,20.49
2022-10-05T07:25:19.365Z,20.48
2022-10-05T07:28:02.812Z,20.48
2022-10-05T07:30:38.324Z,20.48
2022-10-05T07:33:10.849Z,20.48
2022-10-05T07:36:04.716Z,20.48
2022-10-05T07:38:38.365Z,20.46
2022-10-05T07:41:08.972Z,20.47
2022-10-05T07:44:02.181Z,20.49
2022-10-05T07:46:44.548Z,20.50
2022-10-05T07:49:31.412Z,20.49
2022-10-05T07:52:05.090Z,20.49
2022-10-05T07:54:47.519Z,20.48
2022-10-05T07:57:27.231Z,20.49
2022-10-05T08:00:03.226Z,20.48
2022-10-05T08:02:41.818Z,20.49
2022-10-05T08:05:14.891Z,20.48
2022-10-05T08:07:41.711Z,20.50
2022-10-05T08:10:39.813Z,20.49
2022-10-05T08:13:16.254Z,20.48
2022-10-05T08:15:48.285Z,20.48
2022-10-05T08:18:26.461Z,20.49
2022-10-05T08:20:56.578Z,20.49
2022-10-05T08:23:35.951Z,20.48
2022-10-05T08:26:17.505Z,20.48
2022-10-05T08:28:52.676Z,20.48
2022-10-05T08:31:23.466Z,20.47
2022-10-05T08:34:22.081Z,20.48
2022-10-05T08:37:20.449Z,20.48
2022-10-05T08:40:18.839Z,20.48
2022-10-05T08:43:08.587Z,20.46
2022-10-05T08:45:53.418Z,20.46
2022-10-05T08:48:42.568Z,20.47
2022-10-05T08:51:35.202Z,20.47
2022-10-05T08:54:26.522Z,20.47
2022-10-05T08:57:11.595Z,20.46
2022-10-05T09:00:14.109Z,20.48
2022-10-05T09:02:58.951Z,20.47
2022-10-05T09:05:31.078Z,20.48
2022-10-05T09:08:13.067Z,20.49
2022-10-05T09:11:01.040Z,20.50
2022-10-05T09:13:39.698Z,20.50
2022-10-05T09:16:32.195Z,20.50
2022-10-05T09:19:23.313Z,20.50
2022-10-05T09:22:15.567Z,20.50
2022-10-05T09:24:59.164Z,20.51
2022-10-05T09:27:38.688Z,20.50
2022-10-05T09:30:39.969Z,20.51
2022-10-05T09:33:15.785Z,20.51
2022-10-05T09:36:27.542Z,20.51
2022-10-05T09:39:28.976Z,20.52
2022-10-05T09:42:30.227Z,20.51
2022-10-05T09:45:08.406Z,20.52
2022-10-05T09:47:41.395Z,20.53
2022-10-05T09:50:30.607Z,20.53
2022-10-05T09:53:08.896Z,20.53
2022-10-05T09:56:01.417Z,20.53
2022-10-05T09:59:03.126Z,20.52
2022-10-05T10:01:53.175Z,20.52
2022-10-05T10:04:44.607Z,20.52
2022-10-05T10:07:53.804Z,20.52
2022-10-05T10:10:31.992Z,20.51
2022-10-05T10:13:10.816Z,20.51
2022-10-05T10:16:04.313Z,20.51
2022-10-05T10:18:54.522Z,20.50
2022-10-05T10:21:47.375Z,20.51
2022-10-05T10:24:54.421Z,20.51
2022-10-05T10:27:54.164Z,20.52
2022-10-05T10:30:27.696Z,20.53
2022-10-05T10:33:11.683Z,20.52
2022-10-05T10:35:44.724Z,20.51
2022-10-05T10:38:29.112Z,20.52
2022-10-05T10:41:17.883Z,20.52
2022-10-05T10:44:28.143Z,20.52
2022-10-05T10:47:12.980Z,20.52
2022-10-05T10:50:00.888Z,20.51
2022-10-05T10:52:56.718Z,20.51
2022-10-05T10:55:54.533Z,20.51
2022-10-05T10:58:20.816Z,20.52
2022-10-05T11:01:02.363Z,20.51
2022-10-05T11:03:34.785Z,20.53
2022-10-05T11:06:32.757Z,20.53
2022-10-05T11:09:13.707Z,20.53
2022-10-05T11:12:14.125Z,20.53
2022-10-05T11:14:59.999Z,20.54
2022-10-05T11:17:59.929Z,20.53
2022-10-05T11:20:57.528Z,20.53
2022-10-05T11:23:30.157Z,20.54
2022-10-05T11:26:26.728Z,20.54
2022-10-05T11:29:17.814Z,20.54
2022-10-05T11:32:02.794Z,20.54
2022-10-05T11:34:50.585Z,20.55
2022-10-05T11:37:46.027Z,20.54
2022-10-05T11:40:38.567Z,20.55
2022-10-05T11:43:25.688Z,20.54
2022-10-05T11:46:08.117Z,20.55
2022-10-05T11:49:13.507Z,20.55
2022-10-05T11:51:47.465Z,20.55
2022-10-05T11:55:10.345Z,20.56
2022-10-05T11:57:45.792Z,20.55
2022-10-05T12:00:20.351Z,20.57
2022-10-05T12:03:30.488Z,20.57
2022-10-05T12:06:02.012Z,20.58
2022-10-05T12:08:46.925Z,20.58
2022-10-05T12:11:48.788Z,20.60
2022-10-05T12:14:27.320Z,20.57
2022-10-05T12:17:11.811Z,20.58
2022-10-05T12:19:45.864Z,20.61
2022-10-05T12:22:15.456Z,20.60
2022-10-05T12:24:44.492Z,20.62
2022-10-05T12:27:22.861Z,20.63
2022-10-05T12:30:16.594Z,20.62
2022-10-05T12:32:55.871Z,20.61
2022-10-05T12:35:50.177Z,20.65
2022-10-05T12:38:37.139Z,20.68
2022-10-05T12:41:14.232Z,20.70
2022-10-05T12:43:57.632Z,20.69
2022-10-05T12:46:50.259Z,20.69
2022-10-05T12:49:45.347Z,20.73
2022-10-05T12:52:36.878Z,20.74
2022-10-05T12:55:12.727Z,20.73
2022-10-05T12:57:47.607Z,20.72
2022-10-05T13:00:23.006Z,20.72
2022-10-05T13:03:08.373Z,20.71
2022-10-05T13:05:34.614Z,20.70
2022-10-05T13:08:24.394Z,20.69
2022-10-05T13:11:02.258Z,20.70
2022-10-05T13:14:10.090Z,20.68
2022-10-05T13:16:45.612Z,20.69
2022-10-05T13:19:30.768Z,20.68
2022-10-05T13:22:17.335Z,20.68
2022-10-05T13:24:59.280Z,20.67
2022-10-05T13:27:30.472Z,20.66
2022-10-05T13:30:05.328Z,20.67
2022-10-05T13:32:36.623Z,20.66
2022-10-05T13:35:21.685Z,20.67
2022-10-05T13:38:01.798Z,20.66
2022-10-05T13:41:07.160Z,20.61
2022-10-05T13:43:43.864Z,20.57
2022-10-05T13:46:37.633Z,20.54
2022-10-05T13:49:37.906Z,20.52
2022-10-05T13:52:28.934Z,20.51
2022-10-05T13:55:03.104Z,20.51
2022-10-05T13:57:36.039Z,20.52
2022-10-05T14:00:16.509Z,20.55
2022-10-05T14:02:47.071Z,20.56
2022-10-05T14:05:22.924Z,20.60
2022-10-05T14:07:52.732Z,20.63
2022-10-05T14:10:31.623Z,20.65
2022-10-05T14:12:58.059Z,20.68
2022-10-05T14:15:32.528Z,20.69
2022-10-05T14:17:59.262Z,20.71
2022-10-05T14:20:34.164Z,20.72
2022-10-05T14:23:14.212Z,20.71
2022-10-05T14:25:50.180Z,20.71
2022-10-05T14:28:31.472Z,20.74
2022-10-05T14:31:13.600Z,20.72
2022-10-05T14:33:40.963Z,20.71
2022-10-05T14:36:33.512Z,20.70
2022-10-05T14:39:01.978Z,20.70
2022-10-05T14:41:29.358Z,20.69
2022-10-05T14:44:04.276Z,20.68
2022-10-05T14:46:35.038Z,20.69
2022-10-05T14:49:21.619Z,20.68
2022-10-05T14:51:49.791Z,20.66
2022-10-05T14:54:30.152Z,20.67
2022-10-05T14:57:16.566Z,20.66
2022-10-05T15:00:00.173Z,20.66
2022-10-05T15:02:57.012Z,20.66
2022-10-05T15:05:47.976Z,20.68
2022-10-05T15:08:23.060Z,21.19
2022-10-05T15:10:56.488Z,22.58
2022-10-05T15:13:29.217Z,22.41
2022-10-05T15:16:00.991Z,21.86
2022-10-05T15:18:42.369Z,21.48
2022-10-05T15:21:46.731Z,21.22
2022-10-05T15:24:20.765Z,21.06
2022-10-05T15:27:03.396Z,20.97
2022-10-05T15:29:36.136Z,20.91
2022-10-05T15:32:26.609Z,20.85
2022-10-05T15:35:03.881Z,20.82
2022-10-05T15:37:43.225Z,20.79
2022-10-05T15:40:38.700Z,20.77
2022-10-05T15:43:18.039Z,20.72
2022-10-05T15:46:10.918Z,20.72
2022-10-05T15:48:54.338Z,20.70
2022-10-05T15:51:50.855Z,20.70
2022-10-05T15:54:49.765Z,20.70
2022-10-05T15:57:48.296Z,20.68
2022-10-05T16:00:20.655Z,20.68
2022-10-05T16:03:11.464Z,20.68
2022-10-05T16:05:56.363Z,20.66
2022-10-05T16:08:50.570Z,20.65
2022-10-05T16:11:36.512Z,20.65
2022-10-05T16:14:39.445Z,20.64
2022-10-05T16:17:26.915Z,20.63
2022-10-05T16:20:21.250Z,20.63
2022-10-05T16:23:12.547Z,20.62
2022-10-05T16:25:58.329Z,20.62
2022-10-05T16:28:54.211Z,20.63
2022-10-05T16:31:37.232Z,20.64
2022-10-05T16:34:26.729Z,20.65
2022-10-05T16:37:20.495Z,20.65
2022-10-05T16:39:59.152Z,20.65
2022-10-05T16:42:56.209Z,20.64
2022-10-05T16:45:47.338Z,20.65
2022-10-05T16:48:30.854Z,20.63
2022-10-05T16:51:52.132Z,20.64
2022-10-05T16:54:25.780Z,20.65
2022-10-05T16:56:59.300Z,20.66
2022-10-05T16:59:43.036Z,20.65
2022-10-05T17:02:28.103Z,20.67
2022-10-05T17:05:12.136Z,20.66
2022-10-05T17:08:12.330Z,20.66
2022-10-05T17:10:50.762Z,20.66
2022-10-05T17:13:19.837Z,20.66
2022-10-05T17:16:04.055Z,20.68
2022-10-05T17:19:08.492Z,20.67
2022-10-05T17:21:44.322Z,20.66
2022-10-05T17:24:16.319Z,20.67
2022-10-05T17:26:45.415Z,20.67
2022-10-05T17:29:47.380Z,20.68
2022-10-05T17:32:16.636Z,20.69
2022-10-05T17:35:01.417Z,20.69
2022-10-05T17:37:27.663Z,20.69
2022-10-05T17:39:56.280Z,20.71
2022-10-05T17:42:42.504Z,20.71
2022-10-05T17:45:10.800Z,20.74
2022-10-05T17:48:04.019Z,20.74
2022-10-05T17:51:18.013Z,20.75
2022-10-05T17:54:02.917Z,20.74
2022-10-05T17:56:55.636Z,20.74
2022-10-05T17:59:52.636Z,20.77
2022-10-05T18:02:40.560Z,20.77
2022-10-05T18:05:14.344Z,20.78
2022-10-05T18:07:42.693Z,20.80
2022-10-05T18:10:11.965Z,20.78
2022-10-05T18:12:48.878Z,20.78
2022-10-05T18:15:37.433Z,20.78
2022-10-05T18:18:41.252Z,20.78
2022-10-05T18:21:13.562Z,20.78
2022-10-05T18:23:52.025Z,20.79
2022-10-05T18:26:23.774Z,20.81
2022-10-05T18:29:13.640Z,20.82
2022-10-05T18:32:04.615Z,20.82
2022-10-05T18:34:38.366Z,20.84
2022-10-05T18:37:23.003Z,20.85
2022-10-05T18:39:57.368Z,20.86
2022-10-05T18:42:59.091Z,20.86
2022-10-05T18:46:14.863Z,20.86
2022-10-05T18:49:06.880Z,20.87
2022-10-05T18:51:51.812Z,20.88
2022-10-05T18:54:29.389Z,20.88
2022-10-05T18:56:55.885Z,20.89
2022-10-05T18:59:49.372Z,20.90
2022-10-05T19:02:36.761Z,20.89
2022-10-05T19:05:45.932Z,20.91
2022-10-05T19:08:22.359Z,20.90
2022-10-05T19:10:55.416Z,20.91
2022-10-05T19:14:10.942Z,20.92
2022-10-05T19:17:00.417Z,20.93
2022-10-05T19:19:44.851Z,20.95
2022-10-05T19:22:23.675Z,20.96
2022-10-05T19:25:05.221Z,20.97
2022-10-05T19:27:55.511Z,20.97
2022-10-05T19:30:30.630Z,20.96
2022-10-05T19:33:26.424Z,20.97
2022-10-05T19:36:25.321Z,20.98
2022-10-05T19:39:00.434Z,20.98
2022-10-05T19:41:56.021Z,20.97
2022-10-05T19:44:44.127Z,20.97
2022-10-05T19:47:41.478Z,20.98
2022-10-05T19:50:27.405Z,21.00
2022-10-05T19:53:08.007Z,21.01
2022-10-05T19:55:41.528Z,21.00
2022-10-05T19:58:29.819Z,21.01
2022-10-05T20:01:06.661Z,21.00
2022-10-05T20:03:36.594Z,20.99
2022-10-05T20:06:05.897Z,20.99
2022-10-05T20:08:39.566Z,20.98
2022-10-05T20:11:17.479Z,20.96
2022-10-05T20:14:10.049Z,20.97
2022-10-05T20:16:55.291Z,20.97
2022-10-05T20:19:52.260Z,20.97
2022-10-05T20:22:46.365Z,20.98
2022-10-05T20:25:18.655Z,20.97
2022-10-05T20:27:45.148Z,20.98
2022-10-05T20:30:14.611Z,20.96
2022-10-05T20:32:41.455Z,20.97
2022-10-05T20:35:08.311Z,20.97
2022-10-05T20:37:36.610Z,20.96
2022-10-05T20:40:04.576Z,20.97
2022-10-05T20:42:31.012Z,20.97
2022-10-05T20:44:57.895Z,20.96
2022-10-05T20:47:25.103Z,20.97
2022-10-05T20:49:53.280Z,20.96
2022-10-05T20:52:19.693Z,20.96
2022-10-05T20:57:13.869Z,20.94
2022-10-05T20:59:40.175Z,20.93
2022-10-05T21:02:06.581Z,20.92
2022-10-05T21:04:40.244Z,20.93
2022-10-05T21:07:07.154Z,20.91
2022-10-05T21:09:33.465Z,20.91
2022-10-05T21:11:59.785Z,20.90
2022-10-05T21:14:30.398Z,20.91
2022-10-05T21:16:56.751Z,20.90
2022-10-05T21:19:23.083Z,20.88
2022-10-05T21:21:49.378Z,20.88
2022-10-05T21:24:17.226Z,20.86
2022-10-05T21:26:44.703Z,20.86
2022-10-05T21:29:12.948Z,20.85
2022-10-05T21:31:40.215Z,20.87
2022-10-05T21:34:06.618Z,20.85
2022-10-05T21:36:33.020Z,20.86
2022-10-05T21:38:59.517Z,20.85
2022-10-05T21:41:25.899Z,20.84
2022-10-05T21:43:52.626Z,20.86
2022-10-05T21:46:25.215Z,20.85
2022-10-05T21:48:51.990Z,20.83
2022-10-05T21:51:19.357Z,20.85
2022-10-05T21:53:50.125Z,20.84
2022-10-05T21:56:19.368Z,20.84
2022-10-05T21:58:47.032Z,20.84
2022-10-05T22:01:13.608Z,20.84
2022-10-05T22:03:40.023Z,20.83
2022-10-05T22:06:06.758Z,20.82
2022-10-05T22:08:34.155Z,20.83
2022-10-05T22:11:08.643Z,20.82
2022-10-05T22:13:44.508Z,20.82
2022-10-05T22:16:11.877Z,20.82
2022-10-05T22:18:38.645Z,20.82
2022-10-05T22:21:06.969Z,20.83
2022-10-05T22:23:35.944Z,20.82
2022-10-05T22:26:03.801Z,20.81
2022-10-05T22:28:32.048Z,20.81
2022-10-05T22:31:01.798Z,20.80
2022-10-05T22:33:28.326Z,20.81
2022-10-05T22:35:54.684Z,20.80
2022-10-05T22:38:20.996Z,20.81
2022-10-05T22:40:47.300Z,20.80
2022-10-05T22:43:13.624Z,20.79
2022-10-05T22:45:39.961Z,20.79
2022-10-05T22:48:06.315Z,20.80
2022-10-05T22:50:32.642Z,20.79
2022-10-05T22:52:58.962Z,20.78
2022-10-05T22:55:25.582Z,20.79
2022-10-05T22:57:51.921Z,20.78
2022-10-05T23:00:18.370Z,20.78
2022-10-05T23:02:45.458Z,20.78
2022-10-05T23:05:17.032Z,20.78
2022-10-05T23:07:46.517Z,20.78
2022-10-05T23:10:15.763Z,20.76
2022-10-05T23:12:42.559Z,20.77
2022-10-05T23:15:09.613Z,20.77
2022-10-05T23:17:38.804Z,20.77
2022-10-05T23:20:08.203Z,20.77
2022-10-05T23:22:38.708Z,20.75
2022-10-05T23:25:06.810Z,20.75
2022-10-05T23:27:42.541Z,20.75
2022-10-05T23:30:10.469Z,20.74
2022-10-05T23:32:38.712Z,20.75
2022-10-05T23:35:06.196Z,20.74
2022-10-05T23:37:32.531Z,20.76
2022-10-05T23:39:58.831Z,20.75
2022-10-05T23:42:25.152Z,20.74
2022-10-05T23:44:51.472Z,20.74
2022-10-05T23:47:17.784Z,20.74
2022-10-05T23:49:44.126Z,20.74
2022-10-05T23:52:10.449Z,20.73
2022-10-05T23:54:36.763Z,20.73
2022-10-05T23:57:03.113Z,20.72
2022-10-05T23:59:29.407Z,20.72
